createdAt,value
2022-12-22T00:00:32.998Z,12.22
2022-12-22T00:03:18.732Z,12.44
2022-12-22T00:06:05.726Z,12.25
2022-12-22T00:08:51.269Z,12.08
2022-12-22T00:11:36.418Z,12.04
2022-12-22T00:14:21.606Z,12.23
2022-12-22T00:17:07.241Z,12.05
2022-12-22T00:19:52.396Z,12.18
2022-12-22T00:22:41.011Z,12.37
2022-12-22T00:25:28.271Z,12.48
2022-12-22T00:28:13.470Z,12.54
2022-12-22T00:30:58.742Z,12.44
2022-12-22T00:33:43.947Z,12.41
2022-12-22T00:36:31.014Z,12.45
2022-12-22T00:39:17.697Z,12.24
2022-12-22T00:42:03.088Z,11.89
2022-12-22T00:44:48.619Z,12.23
2022-12-22T00:47:42.379Z,12.50
2022-12-22T00:50:28.029Z,12.71
2022-12-22T00:53:13.587Z,12.67
2022-12-22T00:56:00.116Z,12.69
2022-12-22T00:58:45.240Z,12.40
2022-12-22T01:01:30.956Z,12.67
2022-12-22T01:04:16.462Z,12.80
2022-12-22T01:07:01.781Z,12.71
2022-12-22T01:09:47.261Z,12.74
2022-12-22T01:12:38.172Z,12.84
2022-12-22T01:15:29.038Z,12.73
2022-12-22T01:18:14.169Z,12.57
2022-12-22T01:20:59.674Z,12.64
2022-12-22T01:23:45.073Z,12.90
2022-12-22T01:26:30.696Z,13.04
2022-12-22T01:29:17.238Z,12.81
2022-12-22T01:32:02.450Z,12.90
2022-12-22T01:34:47.612Z,13.01
2022-12-22T01:37:32.875Z,12.98
2022-12-22T01:40:18.157Z,13.08
2022-12-22T01:43:03.679Z,13.11
2022-12-22T01:45:52.473Z,13.20
2022-12-22T01:48:39.047Z,13.18
2022-12-22T01:51:27.851Z,13.08
2022-12-22T01:54:13.867Z,13.13
2022-12-22T01:56:59.449Z,13.29
2022-12-22T01:59:44.691Z,13.38
2022-12-22T02:02:31.675Z,13.31
2022-12-22T02:05:18.522Z,13.03
2022-12-22T02:08:12.587Z,13.05
2022-12-22T02:11:10.602Z,13.33
2022-12-22T02:14:01.618Z,12.91
2022-12-22T02:16:51.884Z,12.53
2022-12-22T02:19:50.969Z,12.58
2022-12-22T02:22:41.335Z,12.77
2022-12-22T02:25:29.922Z,12.57
2022-12-22T02:28:17.610Z,12.77
2022-12-22T02:31:03.523Z,13.00
2022-12-22T02:33:48.887Z,12.77
2022-12-22T02:36:42.260Z,12.73
2022-12-22T02:39:34.033Z,12.38
2022-12-22T02:42:27.417Z,12.44
2022-12-22T02:45:21.638Z,12.35
2022-12-22T02:48:09.830Z,12.18
2022-12-22T02:50:58.224Z,12.08
2022-12-22T02:53:44.432Z,11.93
2022-12-22T02:56:30.082Z,12.06
2022-12-22T02:59:15.520Z,12.43
2022-12-22T03:02:04.369Z,12.47
2022-12-22T03:04:49.667Z,12.54
2022-12-22T03:07:35.281Z,12.59
2022-12-22T03:10:20.281Z,12.80
2022-12-22T03:13:05.482Z,12.75
2022-12-22T03:15:51.168Z,12.85
2022-12-22T03:18:38.128Z,12.66
2022-12-22T03:21:23.780Z,12.87
2022-12-22T03:24:09.318Z,13.07
2022-12-22T03:26:37.042Z,12.88
2022-12-22T03:29:04.770Z,12.35
2022-12-22T03:31:32.694Z,12.50
2022-12-22T03:34:01.907Z,12.62
2022-12-22T03:36:29.737Z,12.75
2022-12-22T03:38:57.459Z,12.72
2022-12-22T03:41:42.863Z,12.81
2022-12-22T03:44:28.049Z,12.74
2022-12-22T03:46:55.927Z,13.00
2022-12-22T03:49:26.199Z,12.96
2022-12-22T03:51:54.420Z,12.79
2022-12-22T03:54:23.650Z,12.72
2022-12-22T03:56:51.959Z,12.75
2022-12-22T03:59:20.358Z,12.86
2022-12-22T04:01:50.309Z,12.93
2022-12-22T04:04:20.041Z,12.85
2022-12-22T04:06:49.823Z,12.76
2022-12-22T04:09:17.644Z,12.96
2022-12-22T04:12:02.882Z,12.81
2022-12-22T04:14:34.253Z,12.87
2022-12-22T04:17:02.900Z,12.77
2022-12-22T04:19:31.765Z,12.96
2022-12-22T04:22:01.143Z,12.73
2022-12-22T04:24:29.347Z,12.88
2022-12-22T04:26:57.243Z,12.91
2022-12-22T04:29:25.015Z,12.94
2022-12-22T04:31:52.831Z,12.94
2022-12-22T04:34:20.671Z,13.00
2022-12-22T04:36:48.467Z,12.90
2022-12-22T04:39:17.578Z,12.81
2022-12-22T04:41:45.340Z,13.08
2022-12-22T04:44:13.080Z,12.89
2022-12-22T04:46:40.802Z,12.92
2022-12-22T04:49:08.718Z,12.87
2022-12-22T04:51:36.440Z,12.59
2022-12-22T04:54:04.520Z,12.47
2022-12-22T04:56:33.614Z,12.70
2022-12-22T04:59:01.332Z,12.89
2022-12-22T05:01:29.360Z,12.97
2022-12-22T05:03:57.226Z,13.11
2022-12-22T05:06:24.999Z,13.04
2022-12-22T05:08:52.761Z,13.35
2022-12-22T05:11:20.579Z,13.35
2022-12-22T05:13:49.724Z,13.31
2022-12-22T05:16:17.906Z,13.61
2022-12-22T05:18:46.447Z,13.52
2022-12-22T05:21:15.949Z,13.75
2022-12-22T05:23:45.149Z,13.61
2022-12-22T05:26:14.654Z,13.35
2022-12-22T05:28:42.857Z,13.31
2022-12-22T05:31:16.622Z,13.45
2022-12-22T05:33:44.545Z,13.38
2022-12-22T05:36:12.325Z,13.37
2022-12-22T05:38:40.321Z,13.23
2022-12-22T05:41:08.621Z,13.32
2022-12-22T05:43:36.749Z,13.26
2022-12-22T05:46:04.928Z,13.35
2022-12-22T05:48:38.607Z,13.53
2022-12-22T05:51:07.844Z,13.37
2022-12-22T05:53:35.683Z,13.30
2022-12-22T05:56:03.649Z,13.19
2022-12-22T05:58:31.542Z,13.02
2022-12-22T06:00:59.937Z,33.59
2022-12-22T06:03:28.536Z,15.85
2022-12-22T06:05:58.633Z,14.42
2022-12-22T06:08:27.263Z,13.72
2022-12-22T06:10:55.854Z,13.56
2022-12-22T06:13:23.878Z,13.72
2022-12-22T06:15:51.730Z,13.71
2022-12-22T06:18:19.633Z,13.71
2022-12-22T06:20:47.776Z,13.71
2022-12-22T06:23:16.888Z,13.62
2022-12-22T06:25:44.673Z,13.43
2022-12-22T06:28:12.546Z,13.51
2022-12-22T06:30:40.487Z,13.45
2022-12-22T06:33:08.413Z,13.41
2022-12-22T06:35:37.781Z,34.27
2022-12-22T06:38:05.635Z,26.44
2022-12-22T06:40:34.805Z,24.74
2022-12-22T06:43:10.993Z,24.41
2022-12-22T06:45:40.428Z,24.75
2022-12-22T06:48:09.161Z,24.66
2022-12-22T06:50:37.035Z,24.42
2022-12-22T06:53:05.189Z,24.13
2022-12-22T06:55:34.349Z,23.82
2022-12-22T06:58:02.205Z,23.95
2022-12-22T07:00:30.184Z,23.76
2022-12-22T07:02:58.241Z,24.03
2022-12-22T07:05:26.540Z,24.97
2022-12-22T07:07:54.651Z,25.53
2022-12-22T07:10:42.631Z,24.68
2022-12-22T07:13:20.442Z,23.70
2022-12-22T07:15:53.871Z,24.03
2022-12-22T07:18:25.172Z,23.91
2022-12-22T07:20:52.913Z,24.47
2022-12-22T07:23:20.987Z,24.21
2022-12-22T07:25:48.805Z,24.41
2022-12-22T07:28:21.015Z,24.18
2022-12-22T07:30:49.387Z,24.34
2022-12-22T07:33:17.480Z,24.12
2022-12-22T07:35:45.521Z,24.15
2022-12-22T07:38:13.589Z,23.88
2022-12-22T07:40:44.279Z,24.02
2022-12-22T07:43:12.645Z,24.18
2022-12-22T07:45:41.819Z,23.62
2022-12-22T07:48:24.460Z,23.94
2022-12-22T07:50:52.256Z,24.18
2022-12-22T07:53:20.117Z,24.01
2022-12-22T07:55:47.860Z,23.79
2022-12-22T07:58:15.613Z,23.67
2022-12-22T08:00:44.839Z,23.87
2022-12-22T08:03:12.996Z,23.71
2022-12-22T08:05:41.043Z,23.34
2022-12-22T08:08:08.806Z,23.74
2022-12-22T08:10:36.683Z,22.77
2022-12-22T08:13:04.635Z,22.91
2022-12-22T08:15:32.636Z,23.78
2022-12-22T08:18:01.804Z,23.22
2022-12-22T08:20:29.630Z,23.72
2022-12-22T08:22:57.968Z,23.22
2022-12-22T08:25:25.851Z,22.52
2022-12-22T08:27:54.829Z,23.63
2022-12-22T08:30:22.720Z,23.53
2022-12-22T08:32:51.994Z,23.45
2022-12-22T08:35:21.458Z,22.72
2022-12-22T08:37:49.764Z,22.59
2022-12-22T08:40:21.337Z,23.80
2022-12-22T08:42:49.794Z,23.08
2022-12-22T08:45:17.777Z,23.04
2022-12-22T08:47:45.644Z,22.97
2022-12-22T08:50:13.959Z,23.20
2022-12-22T08:52:43.229Z,22.90
2022-12-22T08:55:11.477Z,23.35
2022-12-22T08:57:39.305Z,22.64
2022-12-22T09:00:08.640Z,22.10
2022-12-22T09:02:36.893Z,22.18
2022-12-22T09:05:05.303Z,22.07
2022-12-22T09:07:33.123Z,22.63
2022-12-22T09:10:02.436Z,22.60
2022-12-22T09:12:30.439Z,24.17
2022-12-22T09:14:58.536Z,23.25
2022-12-22T09:17:26.350Z,23.72
2022-12-22T09:19:54.194Z,23.44
2022-12-22T09:22:28.195Z,22.88
2022-12-22T09:24:56.854Z,23.65
2022-12-22T09:27:25.958Z,23.39
2022-12-22T09:29:53.824Z,23.68
2022-12-22T09:32:21.776Z,23.34
2022-12-22T09:34:49.907Z,23.67
2022-12-22T09:37:17.707Z,23.54
2022-12-22T09:39:45.800Z,24.37
2022-12-22T09:42:15.979Z,24.17
2022-12-22T09:44:47.129Z,23.46
2022-12-22T09:47:20.234Z,22.56
2022-12-22T09:49:48.127Z,23.81
2022-12-22T09:52:25.246Z,24.65
2022-12-22T09:54:53.087Z,24.67
2022-12-22T09:57:20.999Z,25.26
2022-12-22T09:59:50.333Z,25.73
2022-12-22T10:02:25.835Z,23.80
2022-12-22T10:05:12.046Z,23.92
2022-12-22T10:07:42.629Z,23.63
2022-12-22T10:10:24.822Z,23.50
2022-12-22T10:12:53.054Z,22.83
2022-12-22T10:15:22.389Z,24.26
2022-12-22T10:17:51.848Z,23.52
2022-12-22T10:20:26.442Z,24.02
2022-12-22T10:22:56.037Z,23.05
2022-12-22T10:25:52.560Z,22.33
2022-12-22T10:28:22.889Z,22.48
2022-12-22T10:31:11.600Z,23.33
2022-12-22T10:33:44.312Z,23.01
2022-12-22T10:36:14.596Z,23.46
2022-12-22T10:38:56.134Z,22.95
2022-12-22T10:41:26.641Z,23.35
2022-12-22T10:43:55.893Z,23.56
2022-12-22T10:46:34.357Z,23.09
2022-12-22T10:49:14.689Z,23.67
2022-12-22T10:51:44.154Z,24.33
2022-12-22T10:54:28.807Z,23.41
2022-12-22T10:57:08.555Z,21.77
2022-12-22T10:59:49.055Z,21.92
2022-12-22T11:02:41.918Z,22.92
2022-12-22T11:05:11.632Z,22.07
2022-12-22T11:07:40.826Z,22.22
2022-12-22T11:10:18.246Z,22.05
2022-12-22T11:12:57.174Z,21.90
2022-12-22T11:15:29.717Z,21.48
2022-12-22T11:18:03.880Z,21.57
2022-12-22T11:20:47.831Z,21.69
2022-12-22T11:23:21.027Z,22.52
2022-12-22T11:25:56.707Z,22.21
2022-12-22T11:28:40.947Z,20.95
2022-12-22T11:31:16.982Z,21.64
2022-12-22T11:33:59.531Z,22.12
2022-12-22T11:36:34.388Z,21.87
2022-12-22T11:39:06.182Z,23.07
2022-12-22T11:41:56.671Z,23.10
2022-12-22T11:44:36.089Z,23.14
2022-12-22T11:47:08.521Z,23.89
2022-12-22T11:49:46.787Z,23.96
2022-12-22T11:52:28.208Z,23.76
2022-12-22T11:55:08.458Z,25.53
2022-12-22T11:57:41.053Z,27.34
2022-12-22T12:00:11.833Z,27.09
2022-12-22T12:03:27.800Z,27.65
2022-12-22T12:06:25.707Z,24.75
2022-12-22T12:09:02.958Z,24.56
2022-12-22T12:11:36.145Z,24.33
2022-12-22T12:14:11.848Z,25.23
2022-12-22T12:16:41.582Z,27.75
2022-12-22T12:19:47.515Z,26.74
2022-12-22T12:22:24.354Z,24.43
2022-12-22T12:25:01.014Z,23.78
2022-12-22T12:27:45.032Z,24.47
2022-12-22T12:33:09.654Z,26.01
2022-12-22T12:35:47.374Z,27.97
2022-12-22T12:38:56.785Z,30.41
2022-12-22T12:41:15.817Z,27.63
2022-12-22T12:43:44.259Z,26.21
2022-12-22T12:46:47.208Z,23.49
2022-12-22T12:49:52.796Z,25.42
2022-12-22T12:52:59.310Z,25.04
2022-12-22T12:55:33.732Z,23.32
2022-12-22T12:58:03.254Z,26.13
2022-12-22T13:00:49.825Z,24.10
2022-12-22T13:06:55.487Z,26.35
2022-12-22T13:09:50.352Z,26.69
2022-12-22T13:12:38.715Z,26.13
2022-12-22T13:15:29.006Z,26.28
2022-12-22T13:17:57.240Z,26.88
2022-12-22T13:20:27.461Z,29.41
2022-12-22T13:22:57.138Z,31.81
2022-12-22T13:25:28.767Z,32.20
2022-12-22T13:27:58.702Z,30.53
2022-12-22T13:30:29.773Z,26.79
2022-12-22T13:32:58.176Z,28.93
2022-12-22T13:35:33.919Z,28.09
2022-12-22T13:38:02.879Z,29.20
2022-12-22T13:40:31.984Z,28.38
2022-12-22T13:43:04.537Z,28.13
2022-12-22T13:45:35.868Z,29.90
2022-12-22T13:48:09.649Z,26.44
2022-12-22T13:50:39.677Z,24.08
2022-12-22T13:53:09.879Z,24.36
2022-12-22T13:55:38.798Z,24.85
2022-12-22T13:58:14.433Z,25.41
2022-12-22T14:00:42.349Z,24.80
2022-12-22T14:03:41.597Z,24.16
2022-12-22T14:06:19.999Z,21.90
2022-12-22T14:08:47.725Z,23.20
2022-12-22T14:11:15.469Z,23.76
2022-12-22T14:13:44.779Z,23.36
2022-12-22T14:16:14.973Z,23.91
2022-12-22T14:18:43.411Z,24.99
2022-12-22T14:21:11.843Z,25.39
2022-12-22T14:23:41.665Z,26.59
2022-12-22T14:26:14.087Z,26.52
2022-12-22T14:28:50.290Z,26.27
2022-12-22T14:31:19.182Z,27.76
2022-12-22T14:33:53.173Z,26.27
2022-12-22T14:36:23.679Z,25.24
2022-12-22T14:38:52.833Z,25.61
2022-12-22T14:41:44.081Z,23.63
2022-12-22T14:44:15.919Z,23.82
2022-12-22T14:46:44.465Z,24.18
2022-12-22T14:49:15.136Z,16.67
2022-12-22T14:51:43.448Z,17.33
2022-12-22T14:54:21.005Z,21.95
2022-12-22T14:56:49.703Z,23.00
2022-12-22T14:59:26.154Z,22.03
2022-12-22T15:02:01.691Z,18.41
2022-12-22T15:04:30.375Z,14.71
2022-12-22T15:07:45.815Z,20.54
2022-12-22T15:10:15.338Z,20.88
2022-12-22T15:12:44.059Z,21.83
2022-12-22T15:15:18.138Z,17.24
2022-12-22T15:17:47.611Z,14.95
2022-12-22T15:20:19.156Z,14.47
2022-12-22T15:22:47.005Z,15.02
2022-12-22T15:25:16.349Z,14.79
2022-12-22T15:27:44.264Z,14.78
2022-12-22T15:30:14.241Z,15.63
2022-12-22T15:32:43.846Z,14.69
2022-12-22T15:35:23.398Z,14.77
2022-12-22T15:37:51.180Z,14.72
2022-12-22T15:40:20.829Z,14.81
2022-12-22T15:42:48.826Z,14.58
2022-12-22T15:45:16.997Z,14.27
2022-12-22T15:47:49.682Z,20.11
2022-12-22T15:50:20.202Z,21.07
2022-12-22T15:52:50.235Z,21.09
2022-12-22T15:55:18.578Z,21.40
2022-12-22T15:57:46.435Z,21.18
2022-12-22T16:00:15.248Z,17.35
2022-12-22T16:02:43.252Z,16.92
2022-12-22T16:05:12.948Z,15.38
2022-12-22T16:07:42.015Z,13.90
2022-12-22T16:10:19.819Z,20.20
2022-12-22T16:12:53.874Z,20.38
2022-12-22T16:15:22.271Z,19.69
2022-12-22T16:17:52.043Z,17.56
2022-12-22T16:20:21.329Z,14.14
2022-12-22T16:22:50.366Z,13.94
2022-12-22T16:25:20.146Z,14.10
2022-12-22T16:27:49.508Z,13.87
2022-12-22T16:30:19.970Z,14.11
2022-12-22T16:32:48.082Z,13.57
2022-12-22T16:35:17.951Z,13.92
2022-12-22T16:37:48.715Z,14.29
2022-12-22T16:40:18.052Z,13.87
2022-12-22T16:45:37.355Z,14.69
2022-12-22T16:48:07.682Z,14.77
2022-12-22T16:50:35.461Z,14.98
2022-12-22T16:53:06.099Z,14.82
2022-12-22T16:55:35.859Z,14.55
2022-12-22T16:58:12.946Z,18.66
2022-12-22T17:00:43.774Z,16.67
2022-12-22T17:03:14.451Z,14.96
2022-12-22T17:05:45.281Z,14.19
2022-12-22T17:08:20.029Z,18.35
2022-12-22T17:10:47.876Z,18.66
2022-12-22T17:13:15.765Z,18.86
2022-12-22T17:15:43.951Z,15.14
2022-12-22T17:18:17.074Z,19.54
2022-12-22T17:20:45.343Z,18.37
2022-12-22T17:23:28.163Z,19.14
2022-12-22T17:25:55.932Z,18.51
2022-12-22T17:28:23.718Z,18.98
2022-12-22T17:30:51.543Z,19.38
2022-12-22T17:33:19.681Z,19.45
2022-12-22T17:35:48.307Z,19.74
2022-12-22T17:38:18.630Z,19.30
2022-12-22T17:40:48.433Z,16.57
2022-12-22T17:43:17.352Z,19.13
2022-12-22T17:45:46.672Z,18.81
2022-12-22T17:48:15.113Z,18.37
2022-12-22T17:50:43.995Z,15.41
2022-12-22T17:53:20.687Z,16.40
2022-12-22T17:58:36.890Z,12.72
2022-12-22T18:01:04.653Z,13.15
2022-12-22T18:03:33.863Z,16.69
2022-12-22T18:06:01.757Z,16.18
2022-12-22T18:08:30.907Z,15.68
2022-12-22T18:10:58.697Z,16.72
2022-12-22T18:13:26.719Z,16.24
2022-12-22T18:15:55.677Z,16.64
2022-12-22T18:18:23.523Z,16.61
2022-12-22T18:21:06.058Z,16.25
2022-12-22T18:23:38.187Z,16.57
2022-12-22T18:26:08.289Z,14.94
2022-12-22T18:28:36.279Z,14.81
2022-12-22T18:31:04.134Z,14.17
2022-12-22T18:33:31.951Z,14.85
2022-12-22T18:36:00.277Z,15.13
2022-12-22T18:38:31.999Z,15.05
2022-12-22T18:41:01.395Z,14.76
2022-12-22T18:43:29.090Z,13.97
2022-12-22T18:45:56.838Z,13.80
2022-12-22T18:48:24.877Z,13.88
2022-12-22T18:50:52.725Z,13.94
2022-12-22T18:53:27.854Z,13.95
2022-12-22T18:55:56.309Z,14.42
2022-12-22T18:58:26.003Z,14.34
2022-12-22T19:00:55.150Z,13.51
2022-12-22T19:03:24.853Z,13.81
2022-12-22T19:05:52.957Z,14.05
2022-12-22T19:08:22.519Z,13.88
2022-12-22T19:10:52.663Z,14.39
2022-12-22T19:13:26.427Z,14.35
2022-12-22T19:15:54.456Z,14.09
2022-12-22T19:18:27.002Z,15.66
2022-12-22T19:20:55.537Z,15.70
2022-12-22T19:23:25.439Z,16.53
2022-12-22T19:25:56.046Z,15.38
2022-12-22T19:28:28.613Z,15.78
2022-12-22T19:30:57.124Z,15.35
2022-12-22T19:33:27.862Z,15.18
2022-12-22T19:35:55.647Z,14.47
2022-12-22T19:38:25.471Z,14.08
2022-12-22T19:40:55.591Z,14.21
2022-12-22T19:43:23.481Z,14.25
2022-12-22T19:45:54.013Z,14.31
2022-12-22T19:48:23.682Z,14.30
2022-12-22T19:50:52.748Z,15.64
2022-12-22T19:53:20.984Z,14.58
2022-12-22T19:55:52.728Z,14.52
2022-12-22T19:58:23.223Z,14.35
2022-12-22T20:00:52.533Z,15.01
2022-12-22T20:03:22.625Z,17.04
2022-12-22T20:05:50.756Z,14.87
2022-12-22T20:08:18.979Z,15.01
2022-12-22T20:10:50.557Z,15.39
2022-12-22T20:13:22.208Z,15.06
2022-12-22T20:15:50.397Z,14.16
2022-12-22T20:18:21.799Z,14.20
2022-12-22T20:20:57.629Z,14.75
2022-12-22T20:23:26.011Z,14.01
2022-12-22T20:25:56.174Z,13.84
2022-12-22T20:28:25.800Z,13.94
2022-12-22T20:30:54.741Z,13.81
2022-12-22T20:33:25.093Z,14.09
2022-12-22T20:35:54.256Z,14.51
2022-12-22T20:38:25.481Z,14.06
2022-12-22T20:40:54.281Z,14.46
2022-12-22T20:43:24.895Z,13.63
2022-12-22T20:45:54.411Z,13.40
2022-12-22T20:48:30.529Z,13.71
2022-12-22T20:50:58.640Z,16.38
2022-12-22T20:53:26.863Z,17.86
2022-12-22T20:55:54.693Z,18.03
2022-12-22T20:58:25.127Z,17.96
2022-12-22T21:00:54.135Z,18.30
2022-12-22T21:03:22.133Z,17.55
2022-12-22T21:05:51.766Z,17.40
2022-12-22T21:08:21.892Z,17.64
2022-12-22T21:10:51.209Z,18.37
2022-12-22T21:13:19.399Z,18.25
2022-12-22T21:15:50.230Z,17.96
2022-12-22T21:18:20.117Z,18.17
2022-12-22T21:20:48.412Z,18.48
2022-12-22T21:23:17.777Z,18.21
2022-12-22T21:25:47.029Z,18.34
2022-12-22T21:28:24.758Z,18.46
2022-12-22T21:30:52.690Z,18.16
2022-12-22T21:33:20.548Z,18.02
2022-12-22T21:35:48.607Z,18.83
2022-12-22T21:38:19.350Z,18.05
2022-12-22T21:40:47.727Z,18.19
2022-12-22T21:43:16.226Z,18.30
2022-12-22T21:45:44.902Z,18.72
2022-12-22T21:48:13.850Z,18.13
2022-12-22T21:50:41.720Z,18.03
2022-12-22T21:53:09.517Z,18.48
2022-12-22T21:55:39.509Z,18.17
2022-12-22T21:58:09.040Z,18.02
2022-12-22T22:00:37.125Z,15.34
2022-12-22T22:03:05.181Z,18.61
2022-12-22T22:05:34.916Z,18.11
2022-12-22T22:08:03.410Z,15.15
2022-12-22T22:10:33.295Z,14.81
2022-12-22T22:13:03.278Z,14.78
2022-12-22T22:15:32.171Z,15.11
2022-12-22T22:18:06.558Z,14.57
2022-12-22T22:20:35.026Z,14.37
2022-12-22T22:23:02.945Z,14.82
2022-12-22T22:25:30.843Z,14.78
2022-12-22T22:27:59.934Z,14.70
2022-12-22T22:30:29.127Z,14.50
2022-12-22T22:32:57.522Z,14.27
2022-12-22T22:35:26.829Z,14.68
2022-12-22T22:37:55.988Z,14.87
2022-12-22T22:40:24.622Z,14.80
2022-12-22T22:42:52.505Z,18.21
2022-12-22T22:45:23.679Z,18.89
2022-12-22T22:47:53.823Z,19.22
2022-12-22T22:50:22.777Z,18.99
2022-12-22T22:52:50.846Z,18.41
2022-12-22T22:55:18.648Z,19.16
2022-12-22T22:57:46.548Z,18.96
2022-12-22T23:00:17.309Z,19.63
2022-12-22T23:02:46.029Z,19.25
2022-12-22T23:05:20.687Z,19.49
2022-12-22T23:07:50.747Z,18.65
2022-12-22T23:10:18.733Z,19.22
2022-12-22T23:12:46.711Z,19.13
2022-12-22T23:15:14.587Z,18.99
2022-12-22T23:17:42.529Z,19.62
2022-12-22T23:20:10.727Z,19.44
2022-12-22T23:22:39.934Z,19.18
2022-12-22T23:25:09.219Z,19.89
2022-12-22T23:27:37.057Z,19.87
2022-12-22T23:30:05.422Z,19.78
2022-12-22T23:32:33.200Z,19.38
2022-12-22T23:35:01.024Z,19.51
2022-12-22T23:37:28.842Z,19.20
2022-12-22T23:40:10.809Z,19.59
2022-12-22T23:42:45.695Z,19.42
2022-12-22T23:45:13.547Z,19.05
2022-12-22T23:47:41.869Z,19.17
2022-12-22T23:50:10.146Z,19.36
2022-12-22T23:52:37.912Z,19.11
2022-12-22T23:55:08.159Z,19.09
2022-12-22T23:57:36.013Z,19.15
